Delta Cathryn — WDE9621 — position and weather

sailwx.info

Track history (hours):
 
Tides and Currents Weather Stations Pressure Air Temp Water Temp Dewpoint Dewpoint Depression Visibility Wind Speed Wind Dir Waves Ship Positions

Delta Cathryn

Owner: BAYDELTA MARITIME, SAN FRANCISCO, CA. More information available from US FCC via Universal Licensing System and Coast Guard Vessel Documentation Center.

Last reported at 2017-Oct-18 00:00 UTC. Time now 2017-Oct-18 00:23 UTC.
Position N 37°49' W 122°20'.

Length 30 m.

Type: Other ship. MMSI: 367419340.

Date/timePositionNaut miles runAvg speedWind from/ knotsBaromVisibWave heightAir tempDewpointWater temp
2017-Oct-18 00:00N 37°49' W 122°20'2 4.3
2017-Oct-17 23:30N 37°48' W 122°23'2 3.5
2017-Oct-17 23:00N 37°49' W 122°20'0 0.0
2017-Oct-17 22:30N 37°49' W 122°20'0 0.0
2017-Oct-17 22:00N 37°49' W 122°20'0 0.0
2017-Oct-17 21:30N 37°49' W 122°20'0 0.0
2017-Oct-17 21:00N 37°49' W 122°20'0 0.2
2017-Oct-17 20:30N 37°48' W 122°20'2 3.2
2017-Oct-17 20:00N 37°48' W 122°19'1 1.9
2017-Oct-17 19:30N 37°48' W 122°20'2 3.5
2017-Oct-17 19:00N 37°48' W 122°22'1 2.6
2017-Oct-17 18:30N 37°48' W 122°21'0 0.0
2017-Oct-17 18:00N 37°48' W 122°21'0 0.0
2017-Oct-17 17:30N 37°48' W 122°21'0 0.5
2017-Oct-17 17:00N 37°48' W 122°20'2 5.0
2017-Oct-17 16:30N 37°48' W 122°17'1 2.5
2017-Oct-17 16:00N 37°48' W 122°19'0 0.2
2017-Oct-17 15:31N 37°48' W 122°19'0 0.5
2017-Oct-17 15:00N 37°48' W 122°19'0 0.0
2017-Oct-17 14:30N 37°48' W 122°19'0 0.0
2017-Oct-17 14:00N 37°48' W 122°19'0 0.1
2017-Oct-17 13:30N 37°48' W 122°19'0 0.4
2017-Oct-17 13:00N 37°48' W 122°19'3 6.5
2017-Oct-17 12:30N 37°48' W 122°23'1 1.7
2017-Oct-17 12:00N 37°48' W 122°24'0 0.0
2017-Oct-17 11:30N 37°48' W 122°24'0 0.0
2017-Oct-17 11:00N 37°48' W 122°24'0 0.0
2017-Oct-17 10:30N 37°48' W 122°24'0 0.0
2017-Oct-17 10:00N 37°48' W 122°24'0 0.0
2017-Oct-17 09:30N 37°48' W 122°24'0 0.0
2017-Oct-17 09:00N 37°48' W 122°24'0 0.0
2017-Oct-17 08:30N 37°48' W 122°24'0 0.0
2017-Oct-17 08:00N 37°48' W 122°24'0 0.0
2017-Oct-17 07:30N 37°48' W 122°24'0 0.0
2017-Oct-17 07:00N 37°48' W 122°24'0 0.0
2017-Oct-17 06:30N 37°48' W 122°24'0 0.0
2017-Oct-17 06:00N 37°48' W 122°24'0 0.0
2017-Oct-17 05:30N 37°48' W 122°24'0 0.0
2017-Oct-17 05:00N 37°48' W 122°24'0 0.0
2017-Oct-17 04:30N 37°48' W 122°24'0 0.0
2017-Oct-17 04:00N 37°48' W 122°24'0 0.0
2017-Oct-17 03:30N 37°48' W 122°24'0 0.0
2017-Oct-17 03:00N 37°48' W 122°24'0 0.0
2017-Oct-17 02:30N 37°48' W 122°24'0 0.0
2017-Oct-17 02:00N 37°48' W 122°24'0 0.0
2017-Oct-17 01:30N 37°48' W 122°24'0 0.0
2017-Oct-17 01:00N 37°48' W 122°24'0 0.0
2017-Oct-17 00:30N 37°48' W 122°24'0 0.0
2017-Oct-17 00:00N 37°48' W 122°24'0 0.0
2017-Oct-16 23:30N 37°48' W 122°24'0 0.0
2017-Oct-16 23:00N 37°48' W 122°24'0 0.0
2017-Oct-16 22:30N 37°48' W 122°24'0 0.0
2017-Oct-16 22:00N 37°48' W 122°24'0 0.0
2017-Oct-16 21:30N 37°48' W 122°24'0 0.0
2017-Oct-16 21:00N 37°48' W 122°24'0 0.0
2017-Oct-16 20:30N 37°48' W 122°24'0 0.0
2017-Oct-16 20:00N 37°48' W 122°24'0 0.0
2017-Oct-16 19:30N 37°48' W 122°24'0 0.0
2017-Oct-16 19:00N 37°48' W 122°24'0 0.0
2017-Oct-16 18:30N 37°48' W 122°24'0 0.0
2017-Oct-16 18:00N 37°48' W 122°24'0 0.0
2017-Oct-16 17:30N 37°48' W 122°24'0 0.0
2017-Oct-16 17:00N 37°48' W 122°24'0 0.0
2017-Oct-16 16:30N 37°48' W 122°24'0 0.0
2017-Oct-16 16:00N 37°48' W 122°24'0 0.0
2017-Oct-16 15:30N 37°48' W 122°24'0 0.0
2017-Oct-16 15:00N 37°48' W 122°24'4 4.0
2017-Oct-16 14:00N 37°48' W 122°19'1 2.8
2017-Oct-16 13:30N 37°48' W 122°17'1 2.0
2017-Oct-16 13:00N 37°48' W 122°18'1 1.9
2017-Oct-16 12:30N 37°48' W 122°20'3 5.8
2017-Oct-16 12:00N 37°48' W 122°23'3 5.3
2017-Oct-16 11:30N 37°49' W 122°20'0 0.2
2017-Oct-16 11:00N 37°49' W 122°20'1 1.1
2017-Oct-16 10:30N 37°48' W 122°21'3 5.4
2017-Oct-16 10:00N 37°48' W 122°24'0 0.0
2017-Oct-16 09:30N 37°48' W 122°24'0 0.0
2017-Oct-16 09:00N 37°48' W 122°24'0 0.0
2017-Oct-16 08:30N 37°48' W 122°24'1 1.8
2017-Oct-16 08:00N 37°48' W 122°23'2 3.7
2017-Oct-16 07:30N 37°48' W 122°20'1 2.0
2017-Oct-16 07:00N 37°48' W 122°22'2 3.6
2017-Oct-16 06:30N 37°48' W 122°24'0 0.0
2017-Oct-16 06:00N 37°48' W 122°24'0 0.0
2017-Oct-16 05:30N 37°48' W 122°24'0 0.0
2017-Oct-16 05:00N 37°48' W 122°24'0 0.0
2017-Oct-16 04:30N 37°48' W 122°24'0 0.0
2017-Oct-16 04:00N 37°48' W 122°24'0 0.0
2017-Oct-16 03:30N 37°48' W 122°24'0 0.0
2017-Oct-16 03:00N 37°48' W 122°24'0 0.0
2017-Oct-16 02:30N 37°48' W 122°24'0 0.0
2017-Oct-16 02:00N 37°48' W 122°24'0 0.0
2017-Oct-16 01:30N 37°48' W 122°24'0 0.0
2017-Oct-16 01:00N 37°48' W 122°24'0 0.0
2017-Oct-16 00:30N 37°48' W 122°24'0 0.0
2017-Oct-16 00:00N 37°48' W 122°24'0 0.0
2017-Oct-15 23:30N 37°48' W 122°24'0 0.0
2017-Oct-15 23:00N 37°48' W 122°24'0 0.0
2017-Oct-15 22:30N 37°48' W 122°24'0 0.0
2017-Oct-15 22:00N 37°48' W 122°24'0 0.0
2017-Oct-15 21:30N 37°48' W 122°24'0 0.0
2017-Oct-15 21:00N 37°48' W 122°24'0 0.0
2017-Oct-15 20:30N 37°48' W 122°24'0 0.0
2017-Oct-15 20:00N 37°48' W 122°24'0 0.0
2017-Oct-15 19:30N 37°48' W 122°24'3 6.9
2017-Oct-15 19:00N 37°46' W 122°21'1 1.8
2017-Oct-15 18:30N 37°46' W 122°21'4 7.6
2017-Oct-15 18:00N 37°49' W 122°25'5 9.3
2017-Oct-15 17:30N 37°48' W 122°31'1 1.7
2017-Oct-15 17:00N 37°48' W 122°30'2 4.4
2017-Oct-15 16:30N 37°49' W 122°28'3 5.9
2017-Oct-15 16:00N 37°48' W 122°24'0 0.0
2017-Oct-15 15:30N 37°48' W 122°24'0 0.0
2017-Oct-15 14:59N 37°48' W 122°24'0 0.0
2017-Oct-15 14:00N 37°48' W 122°24'0 0.5
2017-Oct-15 13:30N 37°48' W 122°24'1 1.2
2017-Oct-15 13:00N 37°49' W 122°24'1 1.6
2017-Oct-15 12:30N 37°48' W 122°24'0 0.0
2017-Oct-15 12:00N 37°48' W 122°24'0 0.0
2017-Oct-15 11:30N 37°48' W 122°24'0 0.0
2017-Oct-15 11:00N 37°48' W 122°24'0 0.0
2017-Oct-15 10:30N 37°48' W 122°24'0 0.0
2017-Oct-15 10:00N 37°48' W 122°24'0 0.0
2017-Oct-15 09:30N 37°48' W 122°24'0 0.0
2017-Oct-15 09:00N 37°48' W 122°24'0 0.0
2017-Oct-15 08:30N 37°48' W 122°24'0 0.0
2017-Oct-15 08:00N 37°48' W 122°24'0 0.0
2017-Oct-15 07:30N 37°48' W 122°24'0 0.0
2017-Oct-15 07:00N 37°48' W 122°24'3 6.7
2017-Oct-15 06:30N 37°51' W 122°25'510.7
2017-Oct-15 06:00N 37°57' W 122°26'5 9.8
2017-Oct-15 05:30N 38°01' W 122°23'5 9.3
2017-Oct-15 05:00N 38°03' W 122°18'4 8.7
2017-Oct-15 04:30N 38°03' W 122°12'3 1.1
2017-Oct-15 01:35N 38°02' W 122°08'0 0.0
2017-Oct-15 01:25N 38°02' W 122°08'0 0.0
2017-Oct-14 19:09N 38°02' W 122°08'0 0.0
2017-Oct-14 19:00N 38°02' W 122°08'0 0.0
2017-Oct-14 18:30N 38°02' W 122°08'0 0.0
2017-Oct-14 17:34N 38°02' W 122°08'0 0.0
2017-Oct-14 17:29N 38°02' W 122°08'0 0.0
2017-Oct-14 17:00N 38°02' W 122°08'0 0.0
2017-Oct-14 16:30N 38°02' W 122°08'0 0.0
2017-Oct-14 16:00N 38°02' W 122°08'0 0.0
2017-Oct-14 15:30N 38°02' W 122°08'0 0.0
2017-Oct-14 15:00N 38°02' W 122°08'0 0.0
2017-Oct-14 14:30N 38°02' W 122°08'0 0.0
2017-Oct-14 14:00N 38°02' W 122°08'0 0.0
2017-Oct-14 13:28N 38°02' W 122°08'0 0.0
2017-Oct-14 13:00N 38°02' W 122°08'0 0.0
2017-Oct-14 12:30N 38°02' W 122°08'0 0.0
2017-Oct-14 12:00N 38°02' W 122°08'0 0.0
2017-Oct-14 11:29N 38°02' W 122°08'0 0.0
2017-Oct-14 11:00N 38°02' W 122°08'0 0.0
2017-Oct-14 10:30N 38°02' W 122°08'0 0.0
2017-Oct-14 09:59N 38°02' W 122°08'0 0.0
2017-Oct-14 09:30N 38°02' W 122°08'0 0.0
2017-Oct-14 09:00N 38°02' W 122°08'0 0.0
2017-Oct-14 08:30N 38°02' W 122°08'0 0.0
2017-Oct-14 08:00N 38°02' W 122°08'0 0.0
2017-Oct-14 07:30N 38°02' W 122°08'0 0.0
2017-Oct-14 07:00N 38°02' W 122°08'0 0.0
2017-Oct-14 06:30N 38°02' W 122°08'0 0.0
2017-Oct-14 06:00N 38°02' W 122°08'0 0.4
2017-Oct-14 05:01N 38°02' W 122°08'0 6.6
2017-Oct-14 04:59N 38°02' W 122°08'0 0.1
2017-Oct-14 04:30N 38°02' W 122°08'0 0.6
2017-Oct-14 04:00N 38°02' W 122°08'2 1.2
2017-Oct-14 02:27N 38°03' W 122°10'510.3
2017-Oct-14 01:59N 38°03' W 122°16'510.4
2017-Oct-14 01:29N 38°01' W 122°23'510.4
2017-Oct-14 01:01N 37°57' W 122°26'510.6
2017-Oct-14 00:30N 37°52' W 122°24'4 8.7
2017-Oct-14 00:00N 37°49' W 122°21'1 1.3
2017-Oct-13 23:31N 37°49' W 122°20'0 0.4
2017-Oct-13 23:01N 37°49' W 122°20'2 4.7
2017-Oct-13 22:30N 37°49' W 122°23'0 0.5
2017-Oct-13 22:00N 37°49' W 122°23'2 3.6
2017-Oct-13 21:30N 37°51' W 122°24'4 7.3
2017-Oct-13 21:00N 37°54' W 122°25'4 8.0
2017-Oct-13 20:30N 37°58' W 122°26'4 8.6
2017-Oct-13 20:00N 38°02' W 122°22'5 9.2
2017-Oct-13 19:25N 38°03' W 122°16'4 9.4
2017-Oct-13 19:00N 38°03' W 122°11'3 5.3
2017-Oct-13 18:30N 38°02' W 122°08'0 0.0
2017-Oct-13 18:00N 38°02' W 122°08'1 1.2
2017-Oct-13 17:30N 38°02' W 122°08'0 0.0
2017-Oct-13 16:48N 38°02' W 122°08'0 0.0
2017-Oct-13 16:15N 38°02' W 122°08'0 0.0
2017-Oct-13 15:58N 38°02' W 122°08'0 0.0
2017-Oct-13 15:29N 38°02' W 122°08'0 0.1
2017-Oct-13 14:51N 38°02' W 122°08'0 0.1
2017-Oct-13 13:53N 38°02' W 122°08'2 0.8
2017-Oct-13 11:21N 38°03' W 122°10'3 8.0
2017-Oct-13 11:00N 38°04' W 122°14'2 3.1
2017-Oct-13 10:30N 38°03' W 122°16'2 4.4
2017-Oct-13 10:00N 38°04' W 122°13'4 0.7
2017-Oct-13 04:35N 38°02' W 122°08'0 0.0
2017-Oct-13 04:21N 38°02' W 122°08'0 0.0
2017-Oct-13 03:59N 38°02' W 122°08'0 0.0
2017-Oct-13 03:30N 38°02' W 122°08'0 0.0
2017-Oct-13 03:00N 38°02' W 122°08'0 0.0
2017-Oct-13 02:30N 38°02' W 122°08'2 5.0
2017-Oct-13 02:00N 38°03' W 122°11'611.1
2017-Oct-13 01:30N 38°03' W 122°18'510.7
2017-Oct-13 01:00N 38°01' W 122°24'510.4
2017-Oct-13 00:30N 37°55' W 122°25'2 4.8
2017-Oct-13 00:00N 37°54' W 122°23'1 2.1
2017-Oct-12 23:30N 37°55' W 122°22'0 0.3
2017-Oct-12 23:00N 37°55' W 122°22'0 0.0
2017-Oct-12 22:30N 37°55' W 122°22'0 0.0
2017-Oct-12 22:00N 37°55' W 122°22'0 0.0
2017-Oct-12 21:30N 37°55' W 122°22'0 0.0
2017-Oct-12 21:00N 37°55' W 122°22'0 0.0
2017-Oct-12 20:30N 37°55' W 122°22'0 0.9
2017-Oct-12 20:00N 37°54' W 122°22'1 1.6
2017-Oct-12 19:30N 37°55' W 122°22'0 0.9
2017-Oct-12 19:00N 37°55' W 122°22'0 0.0
2017-Oct-12 18:30N 37°55' W 122°22'0 0.0
2017-Oct-12 18:00N 37°55' W 122°22'0 0.0
2017-Oct-12 17:30N 37°55' W 122°22'0 0.0
2017-Oct-12 17:00N 37°55' W 122°22'0 0.0
2017-Oct-12 16:30N 37°55' W 122°22'0 0.0
2017-Oct-12 16:00N 37°55' W 122°22'0 0.0
2017-Oct-12 15:30N 37°55' W 122°22'0 0.0
2017-Oct-12 15:00N 37°55' W 122°22'1 1.5
2017-Oct-12 14:30N 37°54' W 122°22'2 4.9
2017-Oct-12 14:00N 37°56' W 122°25'0 0.3
2017-Oct-12 13:30N 37°55' W 122°25'2 5.0
2017-Oct-12 13:00N 37°53' W 122°25'3 5.2
2017-Oct-12 12:30N 37°56' W 122°25'0 0.0
2017-Oct-12 12:00N 37°56' W 122°25'0 0.0
2017-Oct-12 11:30N 37°56' W 122°25'0 0.0
2017-Oct-12 11:00N 37°56' W 122°25'0 0.9
2017-Oct-12 10:30N 37°55' W 122°25'0 0.3
2017-Oct-12 10:00N 37°55' W 122°25'0 0.8
2017-Oct-12 09:30N 37°56' W 122°25'0 0.0
2017-Oct-12 09:00N 37°56' W 122°25'0 0.0
2017-Oct-12 08:30N 37°56' W 122°25'0 0.0
2017-Oct-12 08:00N 37°56' W 122°25'0 0.0
2017-Oct-12 07:30N 37°56' W 122°25'0 0.0
2017-Oct-12 07:00N 37°56' W 122°25'0 0.0
2017-Oct-12 06:30N 37°56' W 122°25'0 0.0
2017-Oct-12 06:00N 37°56' W 122°25'3 5.0
2017-Oct-12 05:30N 37°58' W 122°26'612.2
2017-Oct-12 04:59N 38°03' W 122°20'9 1.9
2017-Oct-11 23:51N 38°02' W 122°08'2 2.4
2017-Oct-11 22:58N 38°03' W 122°11'3 6.4
2017-Oct-11 22:30N 38°04' W 122°15'0 0.1
2017-Oct-11 21:11N 38°03' W 122°15'0 0.3
2017-Oct-11 21:00N 38°04' W 122°15'16 0.8
2017-Oct-11 00:00N 37°48' W 122°19'1 2.2
2017-Oct-10 23:30N 37°48' W 122°17'2 3.1
2017-Oct-10 23:00N 37°48' W 122°19'3 5.4
2017-Oct-10 22:30N 37°48' W 122°23'4 8.8
2017-Oct-10 22:00N 37°52' W 122°24'3 5.7
2017-Oct-10 21:30N 37°55' W 122°25'0 1.0
2017-Oct-10 21:01N 37°55' W 122°25'3 6.6
2017-Oct-10 20:30N 37°52' W 122°25'3 6.4
2017-Oct-10 20:01N 37°49' W 122°24'4 7.6
2017-Oct-10 19:30N 37°49' W 122°29'1 2.7
2017-Oct-10 19:00N 37°48' W 122°30'0 0.7
2017-Oct-10 18:30N 37°48' W 122°30'4 7.6
2017-Oct-10 18:00N 37°49' W 122°25'1 2.2
2017-Oct-10 17:30N 37°48' W 122°24'0 0.5
2017-Oct-10 17:00N 37°48' W 122°24'0 0.2
2017-Oct-10 16:30N 37°48' W 122°24'2 3.7
2017-Oct-10 16:00N 37°49' W 122°26'2 4.0
2017-Oct-10 15:31N 37°48' W 122°24'0 0.1
2017-Oct-10 15:00N 37°48' W 122°24'0 0.0
2017-Oct-10 14:00N 37°48' W 122°24'0 0.0
2017-Oct-10 13:30N 37°48' W 122°24'0 0.0
2017-Oct-10 13:00N 37°48' W 122°24'0 0.0
2017-Oct-10 12:30N 37°48' W 122°24'0 0.0
2017-Oct-10 12:00N 37°48' W 122°24'0 0.0
2017-Oct-10 11:30N 37°48' W 122°24'0 0.0
2017-Oct-10 11:00N 37°48' W 122°24'0 0.0
2017-Oct-10 10:30N 37°48' W 122°24'0 0.0
2017-Oct-10 10:00N 37°48' W 122°24'0 0.0
2017-Oct-10 09:30N 37°48' W 122°24'0 0.0
2017-Oct-10 09:00N 37°48' W 122°24'0 0.0
2017-Oct-10 08:30N 37°48' W 122°24'0 0.0
2017-Oct-10 08:00N 37°48' W 122°24'0 0.0
2017-Oct-10 07:30N 37°48' W 122°24'1 2.0
2017-Oct-10 07:00N 37°48' W 122°23'3 6.2
2017-Oct-10 06:31N 37°48' W 122°19'1 1.8
2017-Oct-10 06:00N 37°48' W 122°18'0 0.5
2017-Oct-10 05:30N 37°48' W 122°18'2 4.3
2017-Oct-10 05:00N 37°48' W 122°21'3 5.3
2017-Oct-10 04:30N 37°48' W 122°24'0 0.0
2017-Oct-10 04:00N 37°48' W 122°24'0 0.0
2017-Oct-10 03:30N 37°48' W 122°24'0 0.2
2017-Oct-10 03:00N 37°48' W 122°24'4 7.9
2017-Oct-10 02:31N 37°45' W 122°21'2 3.9
2017-Oct-10 02:01N 37°47' W 122°22'4 7.7
2017-Oct-10 01:30N 37°49' W 122°26'4 7.8
2017-Oct-10 01:00N 37°48' W 122°31'1 1.5
2017-Oct-10 00:31N 37°48' W 122°30'0 0.6
2017-Oct-10 00:00N 37°48' W 122°30'5 9.5
2017-Oct-09 23:30N 37°49' W 122°24'1 1.3
2017-Oct-09 23:00N 37°48' W 122°24'0 0.0
2017-Oct-09 22:30N 37°48' W 122°24'2 4.4
2017-Oct-09 22:00N 37°48' W 122°21'0 1.0
2017-Oct-09 21:30N 37°48' W 122°21'1 1.6
2017-Oct-09 21:00N 37°48' W 122°21'2 3.9
2017-Oct-09 20:30N 37°48' W 122°24'0 0.0
2017-Oct-09 20:00N 37°48' W 122°24'0 0.0
2017-Oct-09 19:30N 37°48' W 122°24'0 0.0
2017-Oct-09 19:00N 37°48' W 122°24'0 0.0
2017-Oct-09 18:30N 37°48' W 122°24'0 0.0
2017-Oct-09 18:00N 37°48' W 122°24'0 0.0
2017-Oct-09 17:30N 37°48' W 122°24'0 0.0
2017-Oct-09 17:00N 37°48' W 122°24'0 0.0
2017-Oct-09 16:30N 37°48' W 122°24'0 0.0
2017-Oct-09 16:00N 37°48' W 122°24'0 0.0
2017-Oct-09 15:30N 37°48' W 122°24'0 0.0
2017-Oct-09 15:00N 37°48' W 122°24'0 0.0
2017-Oct-09 14:30N 37°48' W 122°24'0 0.0
2017-Oct-09 14:00N 37°48' W 122°24'0 0.0
2017-Oct-09 13:30N 37°48' W 122°24'0 0.0
2017-Oct-09 13:00N 37°48' W 122°24'0 0.0
2017-Oct-09 12:30N 37°48' W 122°24'0 0.0
2017-Oct-09 12:00N 37°48' W 122°24'0 0.0
2017-Oct-09 11:30N 37°48' W 122°24'0 0.0
2017-Oct-09 11:00N 37°48' W 122°24'4 7.8
2017-Oct-09 10:31N 37°48' W 122°19'0 0.1
2017-Oct-09 10:00N 37°48' W 122°19'3 6.2
2017-Oct-09 09:30N 37°48' W 122°23'1 1.6
2017-Oct-09 09:00N 37°48' W 122°24'0 0.0
2017-Oct-09 08:30N 37°48' W 122°24'0 0.0
2017-Oct-09 08:00N 37°48' W 122°24'0 0.0
2017-Oct-09 07:30N 37°48' W 122°24'0 0.0
2017-Oct-09 07:00N 37°48' W 122°24'0 0.0
2017-Oct-09 06:30N 37°48' W 122°24'0 0.0
2017-Oct-09 06:00N 37°48' W 122°24'0 0.0
2017-Oct-09 05:30N 37°48' W 122°24'0 0.0
2017-Oct-09 05:00N 37°48' W 122°24'0 0.0
2017-Oct-09 04:30N 37°48' W 122°24'2 5.0
2017-Oct-09 04:01N 37°49' W 122°27'3 5.3
2017-Oct-09 03:30N 37°48' W 122°30'3 6.2
2017-Oct-09 03:00N 37°50' W 122°27'5 9.3
2017-Oct-09 02:29N 37°55' W 122°27'612.9
2017-Oct-09 02:00N 38°01' W 122°24'611.1
2017-Oct-09 01:25N 38°03' W 122°17'4 1.5
2017-Oct-08 22:28N 38°03' W 122°11'511.2
2017-Oct-08 21:59N 38°03' W 122°18'610.5
2017-Oct-08 21:27N 38°00' W 122°24'510.3
2017-Oct-08 21:00N 37°56' W 122°26'2 3.9
2017-Oct-08 20:30N 37°54' W 122°24'2 3.5
2017-Oct-08 20:00N 37°55' W 122°22'0 0.6
2017-Oct-08 19:30N 37°55' W 122°22'0 0.3
2017-Oct-08 19:00N 37°55' W 122°22'1 2.9
2017-Oct-08 18:30N 37°54' W 122°23'3 6.7
2017-Oct-08 18:00N 37°51' W 122°24'3 6.9
2017-Oct-08 17:30N 37°48' W 122°23'4 8.5
2017-Oct-08 17:00N 37°44' W 122°21'1 1.9
2017-Oct-08 16:30N 37°43' W 122°20'3 5.5
2017-Oct-08 16:00N 37°46' W 122°21'5 9.7
2017-Oct-08 15:30N 37°50' W 122°24'611.2
2017-Oct-08 15:00N 37°55' W 122°27'611.1
2017-Oct-08 14:30N 38°00' W 122°25'5 9.2
2017-Oct-08 13:58N 38°03' W 122°19'4 7.8
2017-Oct-08 13:29N 38°04' W 122°15'0 0.3
2017-Oct-08 13:00N 38°04' W 122°15'0 0.2
2017-Oct-08 12:30N 38°03' W 122°15'0 0.0
2017-Oct-08 12:00N 38°03' W 122°15'0 0.0
2017-Oct-08 11:30N 38°03' W 122°15'0 0.0
2017-Oct-08 11:00N 38°03' W 122°15'0 0.1
2017-Oct-08 10:30N 38°03' W 122°15'0 0.0
2017-Oct-08 10:00N 38°03' W 122°15'0 0.0
2017-Oct-08 09:30N 38°03' W 122°15'0 0.1
2017-Oct-08 09:00N 38°03' W 122°15'0 0.0
2017-Oct-08 08:30N 38°03' W 122°15'0 0.0
2017-Oct-08 08:00N 38°03' W 122°15'0 0.1
2017-Oct-08 07:30N 38°03' W 122°15'0 0.0
2017-Oct-08 06:59N 38°03' W 122°15'0 0.1
2017-Oct-08 06:30N 38°03' W 122°15'0 0.0
2017-Oct-08 06:00N 38°03' W 122°15'0 0.0
2017-Oct-08 05:30N 38°03' W 122°15'0 0.1
2017-Oct-08 05:00N 38°03' W 122°15'0 0.1
2017-Oct-08 04:29N 38°03' W 122°15'0 0.0
2017-Oct-08 04:00N 38°03' W 122°15'0 0.0
2017-Oct-08 03:30N 38°03' W 122°15'0 0.0
2017-Oct-08 03:00N 38°03' W 122°15'0 0.0
2017-Oct-08 02:30N 38°03' W 122°15'0 0.0
2017-Oct-08 02:00N 38°03' W 122°15'0 0.0
2017-Oct-08 01:30N 38°03' W 122°15'0 0.1
2017-Oct-08 01:00N 38°03' W 122°15'0 0.1
2017-Oct-08 00:30N 38°03' W 122°15'  
Track history (hours):
 
Tides and Currents Weather Stations Pressure Air Temp Water Temp Dewpoint Dewpoint Depression Visibility Wind Speed Wind Dir Waves Ship Positions

Delta Cathryn

Owner: BAYDELTA MARITIME, SAN FRANCISCO, CA. More information available from US FCC via Universal Licensing System and Coast Guard Vessel Documentation Center.

Last reported at 2017-Oct-18 00:00 UTC. Time now 2017-Oct-18 00:23 UTC.
Position N 37°49' W 122°20'.

Length 30 m.

Type: Other ship. MMSI: 367419340.

Date/timePositionNaut miles runAvg speedWind from/ knotsBaromVisibWave heightAir tempDewpointWater temp
2017-Oct-18 00:00N 37°49' W 122°20'2 4.3
2017-Oct-17 23:30N 37°48' W 122°23'2 3.5
2017-Oct-17 23:00N 37°49' W 122°20'0 0.0
2017-Oct-17 22:30N 37°49' W 122°20'0 0.0
2017-Oct-17 22:00N 37°49' W 122°20'0 0.0
2017-Oct-17 21:30N 37°49' W 122°20'0 0.0
2017-Oct-17 21:00N 37°49' W 122°20'0 0.2
2017-Oct-17 20:30N 37°48' W 122°20'2 3.2
2017-Oct-17 20:00N 37°48' W 122°19'1 1.9
2017-Oct-17 19:30N 37°48' W 122°20'2 3.5
2017-Oct-17 19:00N 37°48' W 122°22'1 2.6
2017-Oct-17 18:30N 37°48' W 122°21'0 0.0
2017-Oct-17 18:00N 37°48' W 122°21'0 0.0
2017-Oct-17 17:30N 37°48' W 122°21'0 0.5
2017-Oct-17 17:00N 37°48' W 122°20'2 5.0
2017-Oct-17 16:30N 37°48' W 122°17'1 2.5
2017-Oct-17 16:00N 37°48' W 122°19'0 0.2
2017-Oct-17 15:31N 37°48' W 122°19'0 0.5
2017-Oct-17 15:00N 37°48' W 122°19'0 0.0
2017-Oct-17 14:30N 37°48' W 122°19'0 0.0
2017-Oct-17 14:00N 37°48' W 122°19'0 0.1
2017-Oct-17 13:30N 37°48' W 122°19'0 0.4
2017-Oct-17 13:00N 37°48' W 122°19'3 6.5
2017-Oct-17 12:30N 37°48' W 122°23'1 1.7
2017-Oct-17 12:00N 37°48' W 122°24'0 0.0
2017-Oct-17 11:30N 37°48' W 122°24'0 0.0
2017-Oct-17 11:00N 37°48' W 122°24'0 0.0
2017-Oct-17 10:30N 37°48' W 122°24'0 0.0
2017-Oct-17 10:00N 37°48' W 122°24'0 0.0
2017-Oct-17 09:30N 37°48' W 122°24'0 0.0
2017-Oct-17 09:00N 37°48' W 122°24'0 0.0
2017-Oct-17 08:30N 37°48' W 122°24'0 0.0
2017-Oct-17 08:00N 37°48' W 122°24'0 0.0
2017-Oct-17 07:30N 37°48' W 122°24'0 0.0
2017-Oct-17 07:00N 37°48' W 122°24'0 0.0
2017-Oct-17 06:30N 37°48' W 122°24'0 0.0
2017-Oct-17 06:00N 37°48' W 122°24'0 0.0
2017-Oct-17 05:30N 37°48' W 122°24'0 0.0
2017-Oct-17 05:00N 37°48' W 122°24'0 0.0
2017-Oct-17 04:30N 37°48' W 122°24'0 0.0
2017-Oct-17 04:00N 37°48' W 122°24'0 0.0
2017-Oct-17 03:30N 37°48' W 122°24'0 0.0
2017-Oct-17 03:00N 37°48' W 122°24'0 0.0
2017-Oct-17 02:30N 37°48' W 122°24'0 0.0
2017-Oct-17 02:00N 37°48' W 122°24'0 0.0
2017-Oct-17 01:30N 37°48' W 122°24'0 0.0
2017-Oct-17 01:00N 37°48' W 122°24'0 0.0
2017-Oct-17 00:30N 37°48' W 122°24'0 0.0
2017-Oct-17 00:00N 37°48' W 122°24'0 0.0
2017-Oct-16 23:30N 37°48' W 122°24'0 0.0
2017-Oct-16 23:00N 37°48' W 122°24'0 0.0
2017-Oct-16 22:30N 37°48' W 122°24'0 0.0
2017-Oct-16 22:00N 37°48' W 122°24'0 0.0
2017-Oct-16 21:30N 37°48' W 122°24'0 0.0
2017-Oct-16 21:00N 37°48' W 122°24'0 0.0
2017-Oct-16 20:30N 37°48' W 122°24'0 0.0
2017-Oct-16 20:00N 37°48' W 122°24'0 0.0
2017-Oct-16 19:30N 37°48' W 122°24'0 0.0
2017-Oct-16 19:00N 37°48' W 122°24'0 0.0
2017-Oct-16 18:30N 37°48' W 122°24'0 0.0
2017-Oct-16 18:00N 37°48' W 122°24'0 0.0
2017-Oct-16 17:30N 37°48' W 122°24'0 0.0
2017-Oct-16 17:00N 37°48' W 122°24'0 0.0
2017-Oct-16 16:30N 37°48' W 122°24'0 0.0
2017-Oct-16 16:00N 37°48' W 122°24'0 0.0
2017-Oct-16 15:30N 37°48' W 122°24'0 0.0
2017-Oct-16 15:00N 37°48' W 122°24'4 4.0
2017-Oct-16 14:00N 37°48' W 122°19'1 2.8
2017-Oct-16 13:30N 37°48' W 122°17'1 2.0
2017-Oct-16 13:00N 37°48' W 122°18'1 1.9
2017-Oct-16 12:30N 37°48' W 122°20'3 5.8
2017-Oct-16 12:00N 37°48' W 122°23'3 5.3
2017-Oct-16 11:30N 37°49' W 122°20'0 0.2
2017-Oct-16 11:00N 37°49' W 122°20'1 1.1
2017-Oct-16 10:30N 37°48' W 122°21'3 5.4
2017-Oct-16 10:00N 37°48' W 122°24'0 0.0
2017-Oct-16 09:30N 37°48' W 122°24'0 0.0
2017-Oct-16 09:00N 37°48' W 122°24'0 0.0
2017-Oct-16 08:30N 37°48' W 122°24'1 1.8
2017-Oct-16 08:00N 37°48' W 122°23'2 3.7
2017-Oct-16 07:30N 37°48' W 122°20'1 2.0
2017-Oct-16 07:00N 37°48' W 122°22'2 3.6
2017-Oct-16 06:30N 37°48' W 122°24'0 0.0
2017-Oct-16 06:00N 37°48' W 122°24'0 0.0
2017-Oct-16 05:30N 37°48' W 122°24'0 0.0
2017-Oct-16 05:00N 37°48' W 122°24'0 0.0
2017-Oct-16 04:30N 37°48' W 122°24'0 0.0
2017-Oct-16 04:00N 37°48' W 122°24'0 0.0
2017-Oct-16 03:30N 37°48' W 122°24'0 0.0
2017-Oct-16 03:00N 37°48' W 122°24'0 0.0
2017-Oct-16 02:30N 37°48' W 122°24'0 0.0
2017-Oct-16 02:00N 37°48' W 122°24'0 0.0
2017-Oct-16 01:30N 37°48' W 122°24'0 0.0
2017-Oct-16 01:00N 37°48' W 122°24'0 0.0
2017-Oct-16 00:30N 37°48' W 122°24'0 0.0
2017-Oct-16 00:00N 37°48' W 122°24'0 0.0
2017-Oct-15 23:30N 37°48' W 122°24'0 0.0
2017-Oct-15 23:00N 37°48' W 122°24'0 0.0
2017-Oct-15 22:30N 37°48' W 122°24'0 0.0
2017-Oct-15 22:00N 37°48' W 122°24'0 0.0
2017-Oct-15 21:30N 37°48' W 122°24'0 0.0
2017-Oct-15 21:00N 37°48' W 122°24'0 0.0
2017-Oct-15 20:30N 37°48' W 122°24'0 0.0
2017-Oct-15 20:00N 37°48' W 122°24'0 0.0
2017-Oct-15 19:30N 37°48' W 122°24'3 6.9
2017-Oct-15 19:00N 37°46' W 122°21'1 1.8
2017-Oct-15 18:30N 37°46' W 122°21'4 7.6
2017-Oct-15 18:00N 37°49' W 122°25'5 9.3
2017-Oct-15 17:30N 37°48' W 122°31'1 1.7
2017-Oct-15 17:00N 37°48' W 122°30'2 4.4
2017-Oct-15 16:30N 37°49' W 122°28'3 5.9
2017-Oct-15 16:00N 37°48' W 122°24'0 0.0
2017-Oct-15 15:30N 37°48' W 122°24'0 0.0
2017-Oct-15 14:59N 37°48' W 122°24'0 0.0
2017-Oct-15 14:00N 37°48' W 122°24'0 0.5
2017-Oct-15 13:30N 37°48' W 122°24'1 1.2
2017-Oct-15 13:00N 37°49' W 122°24'1 1.6
2017-Oct-15 12:30N 37°48' W 122°24'0 0.0
2017-Oct-15 12:00N 37°48' W 122°24'0 0.0
2017-Oct-15 11:30N 37°48' W 122°24'0 0.0
2017-Oct-15 11:00N 37°48' W 122°24'0 0.0
2017-Oct-15 10:30N 37°48' W 122°24'0 0.0
2017-Oct-15 10:00N 37°48' W 122°24'0 0.0
2017-Oct-15 09:30N 37°48' W 122°24'0 0.0
2017-Oct-15 09:00N 37°48' W 122°24'0 0.0
2017-Oct-15 08:30N 37°48' W 122°24'0 0.0
2017-Oct-15 08:00N 37°48' W 122°24'0 0.0
2017-Oct-15 07:30N 37°48' W 122°24'0 0.0
2017-Oct-15 07:00N 37°48' W 122°24'3 6.7
2017-Oct-15 06:30N 37°51' W 122°25'510.7
2017-Oct-15 06:00N 37°57' W 122°26'5 9.8
2017-Oct-15 05:30N 38°01' W 122°23'5 9.3
2017-Oct-15 05:00N 38°03' W 122°18'4 8.7
2017-Oct-15 04:30N 38°03' W 122°12'3 1.1
2017-Oct-15 01:35N 38°02' W 122°08'0 0.0
2017-Oct-15 01:25N 38°02' W 122°08'0 0.0
2017-Oct-14 19:09N 38°02' W 122°08'0 0.0
2017-Oct-14 19:00N 38°02' W 122°08'0 0.0
2017-Oct-14 18:30N 38°02' W 122°08'0 0.0
2017-Oct-14 17:34N 38°02' W 122°08'0 0.0
2017-Oct-14 17:29N 38°02' W 122°08'0 0.0
2017-Oct-14 17:00N 38°02' W 122°08'0 0.0
2017-Oct-14 16:30N 38°02' W 122°08'0 0.0
2017-Oct-14 16:00N 38°02' W 122°08'0 0.0
2017-Oct-14 15:30N 38°02' W 122°08'0 0.0
2017-Oct-14 15:00N 38°02' W 122°08'0 0.0
2017-Oct-14 14:30N 38°02' W 122°08'0 0.0
2017-Oct-14 14:00N 38°02' W 122°08'0 0.0
2017-Oct-14 13:28N 38°02' W 122°08'0 0.0
2017-Oct-14 13:00N 38°02' W 122°08'0 0.0
2017-Oct-14 12:30N 38°02' W 122°08'0 0.0
2017-Oct-14 12:00N 38°02' W 122°08'0 0.0
2017-Oct-14 11:29N 38°02' W 122°08'0 0.0
2017-Oct-14 11:00N 38°02' W 122°08'0 0.0
2017-Oct-14 10:30N 38°02' W 122°08'0 0.0
2017-Oct-14 09:59N 38°02' W 122°08'0 0.0
2017-Oct-14 09:30N 38°02' W 122°08'0 0.0
2017-Oct-14 09:00N 38°02' W 122°08'0 0.0
2017-Oct-14 08:30N 38°02' W 122°08'0 0.0
2017-Oct-14 08:00N 38°02' W 122°08'0 0.0
2017-Oct-14 07:30N 38°02' W 122°08'0 0.0
2017-Oct-14 07:00N 38°02' W 122°08'0 0.0
2017-Oct-14 06:30N 38°02' W 122°08'0 0.0
2017-Oct-14 06:00N 38°02' W 122°08'0 0.4
2017-Oct-14 05:01N 38°02' W 122°08'0 6.6
2017-Oct-14 04:59N 38°02' W 122°08'0 0.1
2017-Oct-14 04:30N 38°02' W 122°08'0 0.6
2017-Oct-14 04:00N 38°02' W 122°08'2 1.2
2017-Oct-14 02:27N 38°03' W 122°10'510.3
2017-Oct-14 01:59N 38°03' W 122°16'510.4
2017-Oct-14 01:29N 38°01' W 122°23'510.4
2017-Oct-14 01:01N 37°57' W 122°26'510.6
2017-Oct-14 00:30N 37°52' W 122°24'4 8.7
2017-Oct-14 00:00N 37°49' W 122°21'1 1.3
2017-Oct-13 23:31N 37°49' W 122°20'0 0.4
2017-Oct-13 23:01N 37°49' W 122°20'2 4.7
2017-Oct-13 22:30N 37°49' W 122°23'0 0.5
2017-Oct-13 22:00N 37°49' W 122°23'2 3.6
2017-Oct-13 21:30N 37°51' W 122°24'4 7.3
2017-Oct-13 21:00N 37°54' W 122°25'4 8.0
2017-Oct-13 20:30N 37°58' W 122°26'4 8.6
2017-Oct-13 20:00N 38°02' W 122°22'5 9.2
2017-Oct-13 19:25N 38°03' W 122°16'4 9.4
2017-Oct-13 19:00N 38°03' W 122°11'3 5.3
2017-Oct-13 18:30N 38°02' W 122°08'0 0.0
2017-Oct-13 18:00N 38°02' W 122°08'1 1.2
2017-Oct-13 17:30N 38°02' W 122°08'0 0.0
2017-Oct-13 16:48N 38°02' W 122°08'0 0.0
2017-Oct-13 16:15N 38°02' W 122°08'0 0.0
2017-Oct-13 15:58N 38°02' W 122°08'0 0.0
2017-Oct-13 15:29N 38°02' W 122°08'0 0.1
2017-Oct-13 14:51N 38°02' W 122°08'0 0.1
2017-Oct-13 13:53N 38°02' W 122°08'2 0.8
2017-Oct-13 11:21N 38°03' W 122°10'3 8.0
2017-Oct-13 11:00N 38°04' W 122°14'2 3.1
2017-Oct-13 10:30N 38°03' W 122°16'2 4.4
2017-Oct-13 10:00N 38°04' W 122°13'4 0.7
2017-Oct-13 04:35N 38°02' W 122°08'0 0.0
2017-Oct-13 04:21N 38°02' W 122°08'0 0.0
2017-Oct-13 03:59N 38°02' W 122°08'0 0.0
2017-Oct-13 03:30N 38°02' W 122°08'0 0.0
2017-Oct-13 03:00N 38°02' W 122°08'0 0.0
2017-Oct-13 02:30N 38°02' W 122°08'2 5.0
2017-Oct-13 02:00N 38°03' W 122°11'611.1
2017-Oct-13 01:30N 38°03' W 122°18'510.7
2017-Oct-13 01:00N 38°01' W 122°24'510.4
2017-Oct-13 00:30N 37°55' W 122°25'2 4.8
2017-Oct-13 00:00N 37°54' W 122°23'1 2.1
2017-Oct-12 23:30N 37°55' W 122°22'0 0.3
2017-Oct-12 23:00N 37°55' W 122°22'0 0.0
2017-Oct-12 22:30N 37°55' W 122°22'0 0.0
2017-Oct-12 22:00N 37°55' W 122°22'0 0.0
2017-Oct-12 21:30N 37°55' W 122°22'0 0.0
2017-Oct-12 21:00N 37°55' W 122°22'0 0.0
2017-Oct-12 20:30N 37°55' W 122°22'0 0.9
2017-Oct-12 20:00N 37°54' W 122°22'1 1.6
2017-Oct-12 19:30N 37°55' W 122°22'0 0.9
2017-Oct-12 19:00N 37°55' W 122°22'0 0.0
2017-Oct-12 18:30N 37°55' W 122°22'0 0.0
2017-Oct-12 18:00N 37°55' W 122°22'0 0.0
2017-Oct-12 17:30N 37°55' W 122°22'0 0.0
2017-Oct-12 17:00N 37°55' W 122°22'0 0.0
2017-Oct-12 16:30N 37°55' W 122°22'0 0.0
2017-Oct-12 16:00N 37°55' W 122°22'0 0.0
2017-Oct-12 15:30N 37°55' W 122°22'0 0.0
2017-Oct-12 15:00N 37°55' W 122°22'1 1.5
2017-Oct-12 14:30N 37°54' W 122°22'2 4.9
2017-Oct-12 14:00N 37°56' W 122°25'0 0.3
2017-Oct-12 13:30N 37°55' W 122°25'2 5.0
2017-Oct-12 13:00N 37°53' W 122°25'3 5.2
2017-Oct-12 12:30N 37°56' W 122°25'0 0.0
2017-Oct-12 12:00N 37°56' W 122°25'0 0.0
2017-Oct-12 11:30N 37°56' W 122°25'0 0.0
2017-Oct-12 11:00N 37°56' W 122°25'0 0.9
2017-Oct-12 10:30N 37°55' W 122°25'0 0.3
2017-Oct-12 10:00N 37°55' W 122°25'0 0.8
2017-Oct-12 09:30N 37°56' W 122°25'0 0.0
2017-Oct-12 09:00N 37°56' W 122°25'0 0.0
2017-Oct-12 08:30N 37°56' W 122°25'0 0.0
2017-Oct-12 08:00N 37°56' W 122°25'0 0.0
2017-Oct-12 07:30N 37°56' W 122°25'0 0.0
2017-Oct-12 07:00N 37°56' W 122°25'0 0.0
2017-Oct-12 06:30N 37°56' W 122°25'0 0.0
2017-Oct-12 06:00N 37°56' W 122°25'3 5.0
2017-Oct-12 05:30N 37°58' W 122°26'612.2
2017-Oct-12 04:59N 38°03' W 122°20'9 1.9
2017-Oct-11 23:51N 38°02' W 122°08'2 2.4
2017-Oct-11 22:58N 38°03' W 122°11'3 6.4
2017-Oct-11 22:30N 38°04' W 122°15'0 0.1
2017-Oct-11 21:11N 38°03' W 122°15'0 0.3
2017-Oct-11 21:00N 38°04' W 122°15'16 0.8
2017-Oct-11 00:00N 37°48' W 122°19'1 2.2
2017-Oct-10 23:30N 37°48' W 122°17'2 3.1
2017-Oct-10 23:00N 37°48' W 122°19'3 5.4
2017-Oct-10 22:30N 37°48' W 122°23'4 8.8
2017-Oct-10 22:00N 37°52' W 122°24'3 5.7
2017-Oct-10 21:30N 37°55' W 122°25'0 1.0
2017-Oct-10 21:01N 37°55' W 122°25'3 6.6
2017-Oct-10 20:30N 37°52' W 122°25'3 6.4
2017-Oct-10 20:01N 37°49' W 122°24'4 7.6
2017-Oct-10 19:30N 37°49' W 122°29'1 2.7
2017-Oct-10 19:00N 37°48' W 122°30'0 0.7
2017-Oct-10 18:30N 37°48' W 122°30'4 7.6
2017-Oct-10 18:00N 37°49' W 122°25'1 2.2
2017-Oct-10 17:30N 37°48' W 122°24'0 0.5
2017-Oct-10 17:00N 37°48' W 122°24'0 0.2
2017-Oct-10 16:30N 37°48' W 122°24'2 3.7
2017-Oct-10 16:00N 37°49' W 122°26'2 4.0
2017-Oct-10 15:31N 37°48' W 122°24'0 0.1
2017-Oct-10 15:00N 37°48' W 122°24'0 0.0
2017-Oct-10 14:00N 37°48' W 122°24'0 0.0
2017-Oct-10 13:30N 37°48' W 122°24'0 0.0
2017-Oct-10 13:00N 37°48' W 122°24'0 0.0
2017-Oct-10 12:30N 37°48' W 122°24'0 0.0
2017-Oct-10 12:00N 37°48' W 122°24'0 0.0
2017-Oct-10 11:30N 37°48' W 122°24'0 0.0
2017-Oct-10 11:00N 37°48' W 122°24'0 0.0
2017-Oct-10 10:30N 37°48' W 122°24'0 0.0
2017-Oct-10 10:00N 37°48' W 122°24'0 0.0
2017-Oct-10 09:30N 37°48' W 122°24'0 0.0
2017-Oct-10 09:00N 37°48' W 122°24'0 0.0
2017-Oct-10 08:30N 37°48' W 122°24'0 0.0
2017-Oct-10 08:00N 37°48' W 122°24'0 0.0
2017-Oct-10 07:30N 37°48' W 122°24'1 2.0
2017-Oct-10 07:00N 37°48' W 122°23'3 6.2
2017-Oct-10 06:31N 37°48' W 122°19'1 1.8
2017-Oct-10 06:00N 37°48' W 122°18'0 0.5
2017-Oct-10 05:30N 37°48' W 122°18'2 4.3
2017-Oct-10 05:00N 37°48' W 122°21'3 5.3
2017-Oct-10 04:30N 37°48' W 122°24'0 0.0
2017-Oct-10 04:00N 37°48' W 122°24'0 0.0
2017-Oct-10 03:30N 37°48' W 122°24'0 0.2
2017-Oct-10 03:00N 37°48' W 122°24'4 7.9
2017-Oct-10 02:31N 37°45' W 122°21'2 3.9
2017-Oct-10 02:01N 37°47' W 122°22'4 7.7
2017-Oct-10 01:30N 37°49' W 122°26'4 7.8
2017-Oct-10 01:00N 37°48' W 122°31'1 1.5
2017-Oct-10 00:31N 37°48' W 122°30'0 0.6
2017-Oct-10 00:00N 37°48' W 122°30'5 9.5
2017-Oct-09 23:30N 37°49' W 122°24'1 1.3
2017-Oct-09 23:00N 37°48' W 122°24'0 0.0
2017-Oct-09 22:30N 37°48' W 122°24'2 4.4
2017-Oct-09 22:00N 37°48' W 122°21'0 1.0
2017-Oct-09 21:30N 37°48' W 122°21'1 1.6
2017-Oct-09 21:00N 37°48' W 122°21'2 3.9
2017-Oct-09 20:30N 37°48' W 122°24'0 0.0
2017-Oct-09 20:00N 37°48' W 122°24'0 0.0
2017-Oct-09 19:30N 37°48' W 122°24'0 0.0
2017-Oct-09 19:00N 37°48' W 122°24'0 0.0
2017-Oct-09 18:30N 37°48' W 122°24'0 0.0
2017-Oct-09 18:00N 37°48' W 122°24'0 0.0
2017-Oct-09 17:30N 37°48' W 122°24'0 0.0
2017-Oct-09 17:00N 37°48' W 122°24'0 0.0
2017-Oct-09 16:30N 37°48' W 122°24'0 0.0
2017-Oct-09 16:00N 37°48' W 122°24'0 0.0
2017-Oct-09 15:30N 37°48' W 122°24'0 0.0
2017-Oct-09 15:00N 37°48' W 122°24'0 0.0
2017-Oct-09 14:30N 37°48' W 122°24'0 0.0
2017-Oct-09 14:00N 37°48' W 122°24'0 0.0
2017-Oct-09 13:30N 37°48' W 122°24'0 0.0
2017-Oct-09 13:00N 37°48' W 122°24'0 0.0
2017-Oct-09 12:30N 37°48' W 122°24'0 0.0
2017-Oct-09 12:00N 37°48' W 122°24'0 0.0
2017-Oct-09 11:30N 37°48' W 122°24'0 0.0
2017-Oct-09 11:00N 37°48' W 122°24'4 7.8
2017-Oct-09 10:31N 37°48' W 122°19'0 0.1
2017-Oct-09 10:00N 37°48' W 122°19'3 6.2
2017-Oct-09 09:30N 37°48' W 122°23'1 1.6
2017-Oct-09 09:00N 37°48' W 122°24'0 0.0
2017-Oct-09 08:30N 37°48' W 122°24'0 0.0
2017-Oct-09 08:00N 37°48' W 122°24'0 0.0
2017-Oct-09 07:30N 37°48' W 122°24'0 0.0
2017-Oct-09 07:00N 37°48' W 122°24'0 0.0
2017-Oct-09 06:30N 37°48' W 122°24'0 0.0
2017-Oct-09 06:00N 37°48' W 122°24'0 0.0
2017-Oct-09 05:30N 37°48' W 122°24'0 0.0
2017-Oct-09 05:00N 37°48' W 122°24'0 0.0
2017-Oct-09 04:30N 37°48' W 122°24'2 5.0
2017-Oct-09 04:01N 37°49' W 122°27'3 5.3
2017-Oct-09 03:30N 37°48' W 122°30'3 6.2
2017-Oct-09 03:00N 37°50' W 122°27'5 9.3
2017-Oct-09 02:29N 37°55' W 122°27'612.9
2017-Oct-09 02:00N 38°01' W 122°24'611.1
2017-Oct-09 01:25N 38°03' W 122°17'4 1.5
2017-Oct-08 22:28N 38°03' W 122°11'511.2
2017-Oct-08 21:59N 38°03' W 122°18'610.5
2017-Oct-08 21:27N 38°00' W 122°24'510.3
2017-Oct-08 21:00N 37°56' W 122°26'2 3.9
2017-Oct-08 20:30N 37°54' W 122°24'2 3.5
2017-Oct-08 20:00N 37°55' W 122°22'0 0.6
2017-Oct-08 19:30N 37°55' W 122°22'0 0.3
2017-Oct-08 19:00N 37°55' W 122°22'1 2.9
2017-Oct-08 18:30N 37°54' W 122°23'3 6.7
2017-Oct-08 18:00N 37°51' W 122°24'3 6.9
2017-Oct-08 17:30N 37°48' W 122°23'4 8.5
2017-Oct-08 17:00N 37°44' W 122°21'1 1.9
2017-Oct-08 16:30N 37°43' W 122°20'3 5.5
2017-Oct-08 16:00N 37°46' W 122°21'5 9.7
2017-Oct-08 15:30N 37°50' W 122°24'611.2
2017-Oct-08 15:00N 37°55' W 122°27'611.1
2017-Oct-08 14:30N 38°00' W 122°25'5 9.2
2017-Oct-08 13:58N 38°03' W 122°19'4 7.8
2017-Oct-08 13:29N 38°04' W 122°15'0 0.3
2017-Oct-08 13:00N 38°04' W 122°15'0 0.2
2017-Oct-08 12:30N 38°03' W 122°15'0 0.0
2017-Oct-08 12:00N 38°03' W 122°15'0 0.0
2017-Oct-08 11:30N 38°03' W 122°15'0 0.0
2017-Oct-08 11:00N 38°03' W 122°15'0 0.1
2017-Oct-08 10:30N 38°03' W 122°15'0 0.0
2017-Oct-08 10:00N 38°03' W 122°15'0 0.0
2017-Oct-08 09:30N 38°03' W 122°15'0 0.1
2017-Oct-08 09:00N 38°03' W 122°15'0 0.0
2017-Oct-08 08:30N 38°03' W 122°15'0 0.0
2017-Oct-08 08:00N 38°03' W 122°15'0 0.1
2017-Oct-08 07:30N 38°03' W 122°15'0 0.0
2017-Oct-08 06:59N 38°03' W 122°15'0 0.1
2017-Oct-08 06:30N 38°03' W 122°15'0 0.0
2017-Oct-08 06:00N 38°03' W 122°15'0 0.0
2017-Oct-08 05:30N 38°03' W 122°15'0 0.1
2017-Oct-08 05:00N 38°03' W 122°15'0 0.1
2017-Oct-08 04:29N 38°03' W 122°15'0 0.0
2017-Oct-08 04:00N 38°03' W 122°15'0 0.0
2017-Oct-08 03:30N 38°03' W 122°15'0 0.0
2017-Oct-08 03:00N 38°03' W 122°15'0 0.0
2017-Oct-08 02:30N 38°03' W 122°15'0 0.0
2017-Oct-08 02:00N 38°03' W 122°15'0 0.0
2017-Oct-08 01:30N 38°03' W 122°15'0 0.1
2017-Oct-08 01:00N 38°03' W 122°15'0 0.1
2017-Oct-08 00:30N 38°03' W 122°15'  

Dump ship's entire track history